Time,TemperatureF,DewpointF,PressureIn,WindDirection,WindDirectionDegrees,WindSpeedMPH,WindSpeedGustMPH,Humidity,HourlyPrecipIn,Conditions,Clouds,dailyrainin,SoftwareType,DateUTC
2013-01-01 00:02:00,26.6,21.0,29.73,NNW,337,0.0,4.0,79,0.00,,,0.00,meteohub,2013-01-01 05:02:00,
2013-01-01 00:04:00,26.6,21.0,29.73,NNW,337,0.0,4.0,79,0.00,,,0.00,meteohub,2013-01-01 05:04:00,
2013-01-01 00:09:00,26.6,21.0,29.70,NNW,331,0.0,0.0,79,0.00,,,0.00,meteohub,2013-01-01 05:09:00,
2013-01-01 00:14:00,26.8,21.2,29.70,NNW,345,4.0,4.0,79,0.00,,,0.00,meteohub,2013-01-01 05:14:00,
2013-01-01 00:19:00,26.8,21.2,29.70,NNW,345,5.0,5.0,79,0.00,,,0.00,meteohub,2013-01-01 05:19:00,
2013-01-01 00:24:00,26.8,21.2,29.70,NNW,343,0.0,6.0,79,0.00,,,0.00,meteohub,2013-01-01 05:24:00,
2013-01-01 00:29:00,26.8,21.2,29.70,NW,319,0.0,6.0,79,0.00,,,0.00,meteohub,2013-01-01 05:29:00,
2013-01-01 00:34:00,27.0,21.6,29.70,NNW,342,4.0,6.0,80,0.00,,,0.00,meteohub,2013-01-01 05:34:00,
2013-01-01 00:39:00,27.0,21.6,29.70,North,6,4.0,5.0,80,0.00,,,0.00,meteohub,2013-01-01 05:39:00,
2013-01-01 00:44:00,27.0,21.6,29.70,NW,304,5.0,5.0,80,0.00,,,0.00,meteohub,2013-01-01 05:44:00,
2013-01-01 00:49:00,27.1,21.7,29.70,NW,324,4.0,7.0,80,0.00,,,0.00,meteohub,2013-01-01 05:49:00,
2013-01-01 00:54:00,27.1,21.7,29.70,NW,324,3.0,7.0,80,0.00,,,0.00,meteohub,2013-01-01 05:54:00,
2013-01-01 00:59:00,27.1,21.7,29.70,NW,306,3.0,7.0,80,0.00,,,0.00,meteohub,2013-01-01 05:59:00,
2013-01-01 01:04:00,27.1,21.7,29.70,NNW,331,5.0,8.0,80,0.00,,,0.00,meteohub,2013-01-01 06:04:00,
2013-01-01 01:09:00,27.3,21.9,29.70,NW,324,6.0,8.0,80,0.00,,,0.00,meteohub,2013-01-01 06:09:00,
2013-01-01 01:14:00,27.1,21.7,29.70,NW,325,5.0,8.0,80,0.00,,,0.00,meteohub,2013-01-01 06:14:00,
2013-01-01 01:19:00,27.3,22.3,29.70,NW,322,5.0,10.0,81,0.00,,,0.00,meteohub,2013-01-01 06:19:00,
2013-01-01 01:24:00,27.3,22.3,29.70,NW,324,0.0,10.0,81,0.00,,,0.00,meteohub,2013-01-01 06:24:00,
2013-01-01 01:29:00,27.3,22.3,29.70,NNW,336,0.0,10.0,81,0.00,,,0.00,meteohub,2013-01-01 06:29:00,
2013-01-01 01:34:00,27.3,22.3,29.70,NNE,27,5.0,7.0,81,0.00,,,0.00,meteohub,2013-01-01 06:34:00,
2013-01-01 01:39:00,27.3,22.3,29.70,NW,318,6.0,8.0,81,0.00,,,0.00,meteohub,2013-01-01 06:39:00,
2013-01-01 01:44:00,27.3,22.3,29.70,WNW,284,4.0,8.0,81,0.00,,,0.00,meteohub,2013-01-01 06:44:00,
2013-01-01 01:49:00,27.5,22.8,29.70,NNW,329,3.0,8.0,82,0.00,,,0.00,meteohub,2013-01-01 06:49:00,
2013-01-01 01:54:00,27.5,22.8,29.70,NW,321,4.0,8.0,82,0.00,,,0.00,meteohub,2013-01-01 06:54:00,
2013-01-01 01:59:00,27.5,22.8,29.70,NW,320,6.0,8.0,82,0.00,,,0.00,meteohub,2013-01-01 06:59:00,
2013-01-01 02:04:00,27.5,22.8,29.70,NW,319,3.0,8.0,82,0.00,,,0.00,meteohub,2013-01-01 07:04:00,
2013-01-01 02:09:00,27.7,22.8,29.70,West,273,0.0,8.0,82,0.00,,,0.00,meteohub,2013-01-01 07:09:00,
2013-01-01 02:14:00,27.7,23.2,29.70,North,-999,-999.0,8.0,83,0.00,,,0.00,meteohub,2013-01-01 07:14:00,
2013-01-01 02:19:00,27.7,23.2,29.70,North,-999,-999.0,4.0,83,0.00,,,0.00,meteohub,2013-01-01 07:19:00,
2013-01-01 02:24:00,27.7,23.2,29.70,North,-999,-999.0,3.0,83,0.00,,,0.00,meteohub,2013-01-01 07:24:00,
2013-01-01 02:29:00,27.7,23.2,29.70,North,-999,-999.0,-999.0,83,0.00,,,0.00,meteohub,2013-01-01 07:29:00,
2013-01-01 02:34:00,27.7,23.2,29.70,North,-999,-999.0,-999.0,83,0.00,,,0.00,meteohub,2013-01-01 07:34:00,
2013-01-01 02:39:00,27.7,23.2,29.70,NNW,342,0.0,-999.0,83,0.00,,,0.00,meteohub,2013-01-01 07:39:00,
2013-01-01 02:44:00,27.7,23.2,29.70,North,-999,-999.0,0.0,83,0.00,,,0.00,meteohub,2013-01-01 07:44:00,
2013-01-01 02:49:00,27.7,23.5,29.70,NNW,342,0.0,0.0,84,0.00,,,0.00,meteohub,2013-01-01 07:49:00,
2013-01-01 02:54:00,27.7,23.5,29.70,NNW,342,0.0,0.0,84,0.00,,,0.00,meteohub,2013-01-01 07:54:00,
2013-01-01 02:59:00,27.7,23.5,29.70,NNW,342,0.0,0.0,84,0.00,,,0.00,meteohub,2013-01-01 07:59:00,
2013-01-01 03:04:00,27.7,23.5,29.70,NE,34,0.0,0.0,84,0.00,,,0.00,meteohub,2013-01-01 08:04:00,
2013-01-01 03:09:00,27.7,23.5,29.70,ENE,72,0.0,0.0,84,0.00,,,0.00,meteohub,2013-01-01 08:09:00,
2013-01-01 03:14:00,27.7,23.5,29.70,North,-999,-999.0,0.0,84,0.00,,,0.00,meteohub,2013-01-01 08:14:00,
2013-01-01 03:19:00,27.9,23.7,29.70,ENE,72,0.0,0.0,84,0.00,,,0.00,meteohub,2013-01-01 08:19:00,
2013-01-01 03:24:00,27.9,23.7,29.70,North,-999,-999.0,0.0,84,0.00,,,0.00,meteohub,2013-01-01 08:24:00,
2013-01-01 03:29:00,27.9,23.7,29.70,North,-999,-999.0,0.0,84,0.00,,,0.00,meteohub,2013-01-01 08:29:00,
2013-01-01 03:34:00,27.9,23.7,29.70,North,-999,-999.0,-999.0,84,0.00,,,0.00,meteohub,2013-01-01 08:34:00,
2013-01-01 03:39:00,27.9,23.7,29.70,North,-999,-999.0,-999.0,84,0.00,,,0.00,meteohub,2013-01-01 08:39:00,
2013-01-01 03:44:00,27.9,23.7,29.70,North,-999,-999.0,-999.0,84,0.00,,,0.00,meteohub,2013-01-01 08:44:00,
2013-01-01 03:49:00,27.9,23.9,29.70,North,-999,-999.0,-999.0,85,0.00,,,0.00,meteohub,2013-01-01 08:49:00,
2013-01-01 03:54:00,27.9,23.9,29.70,North,-999,-999.0,-999.0,85,0.00,,,0.00,meteohub,2013-01-01 08:54:00,
2013-01-01 03:59:00,28.0,24.1,29.70,North,0,3.0,-999.0,85,0.00,,,0.00,meteohub,2013-01-01 08:59:00,
2013-01-01 04:04:00,28.0,23.9,29.70,NW,307,4.0,11.0,84,0.00,,,0.00,meteohub,2013-01-01 09:04:00,
2013-01-01 04:09:00,28.0,23.9,29.70,West,265,0.0,11.0,84,0.00,,,0.00,meteohub,2013-01-01 09:09:00,
2013-01-01 04:14:00,28.0,23.9,29.70,West,268,3.0,11.0,84,0.00,,,0.00,meteohub,2013-01-01 09:14:00,
2013-01-01 04:19:00,28.0,23.9,29.70,North,-999,-999.0,6.0,84,0.00,,,0.00,meteohub,2013-01-01 09:19:00,
2013-01-01 04:24:00,28.0,23.5,29.70,North,-999,-999.0,3.0,83,0.00,,,0.00,meteohub,2013-01-01 09:24:00,
2013-01-01 04:29:00,28.0,23.5,29.70,NW,314,0.0,4.0,83,0.00,,,0.00,meteohub,2013-01-01 09:29:00,
2013-01-01 04:34:00,28.0,23.5,29.70,North,-999,-999.0,4.0,83,0.00,,,0.00,meteohub,2013-01-01 09:34:00,
2013-01-01 04:39:00,28.0,23.2,29.70,West,276,3.0,4.0,82,0.00,,,0.00,meteohub,2013-01-01 09:39:00,
2013-01-01 04:44:00,28.0,23.2,29.70,NW,314,0.0,3.0,82,0.00,,,0.00,meteohub,2013-01-01 09:44:00,
2013-01-01 04:49:00,27.9,22.8,29.70,NW,317,9.0,9.0,81,0.00,,,0.00,meteohub,2013-01-01 09:49:00,
2013-01-01 04:54:00,27.9,22.8,29.70,North,-999,-999.0,9.0,81,0.00,,,0.00,meteohub,2013-01-01 09:54:00,
2013-01-01 04:59:00,27.7,22.6,29.70,WNW,287,0.0,9.0,81,0.00,,,0.00,meteohub,2013-01-01 09:59:00,
2013-01-01 05:04:00,27.7,22.3,29.70,North,-999,-999.0,9.0,80,0.00,,,0.00,meteohub,2013-01-01 10:04:00,
2013-01-01 05:09:00,27.5,22.1,29.70,West,270,3.0,9.0,80,0.00,,,0.00,meteohub,2013-01-01 10:09:00,
2013-01-01 05:14:00,27.3,21.9,29.70,WSW,255,3.0,3.0,80,0.00,,,0.00,meteohub,2013-01-01 10:14:00,
2013-01-01 05:19:00,27.3,21.9,29.70,North,-999,-999.0,3.0,80,0.00,,,0.00,meteohub,2013-01-01 10:19:00,
2013-01-01 05:24:00,27.5,22.1,29.70,North,-999,-999.0,3.0,80,0.00,,,0.00,meteohub,2013-01-01 10:24:00,
2013-01-01 05:29:00,27.3,21.7,29.70,ESE,102,3.0,3.0,79,0.00,,,0.00,meteohub,2013-01-01 10:29:00,
2013-01-01 05:34:00,27.3,21.7,29.70,NNW,330,0.0,3.0,79,0.00,,,0.00,meteohub,2013-01-01 10:34:00,
2013-01-01 05:39:00,27.3,21.7,29.70,NNW,330,0.0,3.0,79,0.00,,,0.00,meteohub,2013-01-01 10:39:00,
2013-01-01 05:44:00,27.3,21.7,29.70,North,-999,-999.0,0.0,79,0.00,,,0.00,meteohub,2013-01-01 10:44:00,
2013-01-01 05:49:00,27.3,21.4,29.70,WNW,298,3.0,0.0,78,0.00,,,0.00,meteohub,2013-01-01 10:49:00,
2013-01-01 05:54:00,27.3,21.4,29.73,West,265,6.0,6.0,78,0.00,,,0.00,meteohub,2013-01-01 10:54:00,
2013-01-01 05:59:00,27.1,21.2,29.73,NW,318,4.0,6.0,78,0.00,,,0.00,meteohub,2013-01-01 10:59:00,
2013-01-01 06:04:00,27.1,20.8,29.73,North,-999,-999.0,6.0,77,0.00,,,0.00,meteohub,2013-01-01 11:04:00,
2013-01-01 06:09:00,27.1,20.8,29.73,North,-999,-999.0,6.0,77,0.00,,,0.00,meteohub,2013-01-01 11:09:00,
2013-01-01 06:14:00,27.1,20.7,29.73,North,-999,-999.0,4.0,76,0.00,,,0.00,meteohub,2013-01-01 11:14:00,
2013-01-01 06:19:00,27.0,20.1,29.73,North,-999,-999.0,4.0,75,0.00,,,0.00,meteohub,2013-01-01 11:19:00,
2013-01-01 06:24:00,27.0,20.1,29.73,WNW,283,4.0,8.0,75,0.00,,,0.00,meteohub,2013-01-01 11:24:00,
2013-01-01 06:30:00,27.0,19.8,29.73,North,-999,-999.0,8.0,74,0.00,,,0.00,meteohub,2013-01-01 11:30:00,
2013-01-01 06:35:00,26.8,19.6,29.73,North,-999,-999.0,8.0,74,0.00,,,0.00,meteohub,2013-01-01 11:35:00,
2013-01-01 06:40:00,26.8,19.2,29.73,WNW,287,5.0,8.0,73,0.00,,,0.00,meteohub,2013-01-01 11:40:00,
2013-01-01 06:45:00,26.6,19.0,29.73,North,11,0.0,7.0,73,0.00,,,0.00,meteohub,2013-01-01 11:45:00,
2013-01-01 06:50:00,26.4,18.9,29.73,North,-999,-999.0,7.0,73,0.00,,,0.00,meteohub,2013-01-01 11:50:00,
2013-01-01 06:55:00,26.2,18.9,29.73,NNW,339,3.0,7.0,73,0.00,,,0.00,meteohub,2013-01-01 11:55:00,
2013-01-01 07:00:00,26.2,18.5,29.73,WNW,303,4.0,6.0,72,0.00,,,0.00,meteohub,2013-01-01 12:00:00,
2013-01-01 07:05:00,26.1,18.0,29.73,WNW,284,4.0,6.0,71,0.00,,,0.00,meteohub,2013-01-01 12:05:00,
2013-01-01 07:10:00,26.1,17.6,29.73,WNW,292,4.0,6.0,70,0.00,,,0.00,meteohub,2013-01-01 12:10:00,
2013-01-01 07:15:00,25.9,17.1,29.73,North,-999,-999.0,4.0,69,0.00,,,0.00,meteohub,2013-01-01 12:15:00,
2013-01-01 07:20:00,25.9,16.7,29.76,WNW,293,5.0,5.0,68,0.00,,,0.00,meteohub,2013-01-01 12:20:00,
2013-01-01 07:25:00,25.7,16.3,29.76,WNW,284,4.0,10.0,67,0.00,,,0.00,meteohub,2013-01-01 12:25:00,
2013-01-01 07:30:00,25.5,16.2,29.76,NW,310,5.0,10.0,67,0.00,,,0.00,meteohub,2013-01-01 12:30:00,
2013-01-01 07:35:00,25.5,16.2,29.76,North,-999,-999.0,10.0,67,0.00,,,0.00,meteohub,2013-01-01 12:35:00,
2013-01-01 07:40:00,25.5,15.8,29.76,West,270,4.0,10.0,66,0.00,,,0.00,meteohub,2013-01-01 12:40:00,
2013-01-01 07:45:00,25.5,15.8,29.76,WNW,292,4.0,5.0,66,0.00,,,0.00,meteohub,2013-01-01 12:45:00,
2013-01-01 07:50:00,25.3,15.6,29.76,West,281,4.0,5.0,66,0.00,,,0.00,meteohub,2013-01-01 12:50:00,
2013-01-01 07:55:00,25.3,15.3,29.76,North,-999,-999.0,5.0,65,0.00,,,0.00,meteohub,2013-01-01 12:55:00,
2013-01-01 08:00:00,25.3,14.9,29.76,West,276,6.0,6.0,64,0.00,,,0.00,meteohub,2013-01-01 13:00:00,
2013-01-01 08:05:00,25.3,14.9,29.76,WSW,252,13.0,13.0,64,0.00,,,0.00,meteohub,2013-01-01 13:05:00,
2013-01-01 08:10:00,25.3,14.9,29.76,NNE,17,5.0,8.0,64,0.00,,,0.00,meteohub,2013-01-01 13:10:00,
2013-01-01 08:15:00,25.3,14.9,29.76,NW,313,6.0,13.0,64,0.00,,,0.00,meteohub,2013-01-01 13:15:00,
2013-01-01 08:20:00,25.2,15.1,29.76,North,353,7.0,13.0,65,0.00,,,0.00,meteohub,2013-01-01 13:20:00,
2013-01-01 08:25:00,25.2,15.1,29.76,North,-999,-999.0,9.0,65,0.00,,,0.00,meteohub,2013-01-01 13:25:00,
2013-01-01 08:30:00,25.2,15.1,29.76,NW,316,4.0,7.0,65,0.00,,,0.00,meteohub,2013-01-01 13:30:00,
2013-01-01 08:35:00,25.2,15.1,29.76,WNW,302,4.0,7.0,65,0.00,,,0.00,meteohub,2013-01-01 13:35:00,
2013-01-01 08:40:00,25.3,15.3,29.76,WNW,295,8.0,8.0,65,0.00,,,0.00,meteohub,2013-01-01 13:40:00,
2013-01-01 08:45:00,25.3,15.3,29.76,NW,305,5.0,10.0,65,0.00,,,0.00,meteohub,2013-01-01 13:45:00,
2013-01-01 08:50:00,25.3,15.3,29.76,NNW,337,10.0,10.0,65,0.00,,,0.00,meteohub,2013-01-01 13:50:00,
2013-01-01 08:55:00,25.3,15.3,29.76,WNW,297,6.0,10.0,65,0.00,,,0.00,meteohub,2013-01-01 13:55:00,
2013-01-01 09:00:00,25.3,15.3,29.76,WNW,299,5.0,10.0,65,0.00,,,0.00,meteohub,2013-01-01 14:00:00,
2013-01-01 09:05:00,25.3,15.3,29.79,North,-999,-999.0,10.0,65,0.00,,,0.00,meteohub,2013-01-01 14:05:00,
2013-01-01 09:10:00,25.3,15.6,29.79,NW,307,13.0,13.0,66,0.00,,,0.00,meteohub,2013-01-01 14:10:00,
2013-01-01 09:15:00,25.2,15.4,29.79,NW,312,19.0,19.0,66,0.00,,,0.00,meteohub,2013-01-01 14:15:00,
2013-01-01 09:20:00,25.2,15.8,29.79,NW,324,11.0,19.0,67,0.00,,,0.00,meteohub,2013-01-01 14:20:00,
2013-01-01 09:25:00,25.2,16.2,29.79,NW,318,9.0,19.0,68,0.00,,,0.00,meteohub,2013-01-01 14:25:00,
2013-01-01 09:30:00,25.0,16.0,29.79,NNW,336,6.0,19.0,68,0.00,,,0.00,meteohub,2013-01-01 14:30:00,
2013-01-01 09:35:00,25.0,16.3,29.79,West,276,4.0,11.0,69,0.00,,,0.00,meteohub,2013-01-01 14:35:00,
2013-01-01 09:40:00,25.0,16.3,29.79,WSW,244,5.0,9.0,69,0.00,,,0.00,meteohub,2013-01-01 14:40:00,
2013-01-01 09:45:00,25.0,16.3,29.79,NNW,327,4.0,9.0,69,0.00,,,0.00,meteohub,2013-01-01 14:45:00,
2013-01-01 09:50:00,24.6,16.0,29.79,NW,314,6.0,11.0,69,0.00,,,0.00,meteohub,2013-01-01 14:50:00,
2013-01-01 09:55:00,24.6,16.0,29.79,NNW,333,6.0,11.0,69,0.00,,,0.00,meteohub,2013-01-01 14:55:00,
2013-01-01 10:00:00,24.8,16.2,29.79,NNW,346,4.0,11.0,69,0.00,,,0.00,meteohub,2013-01-01 15:00:00,
2013-01-01 10:05:00,24.6,16.0,29.82,NW,324,8.0,11.0,69,0.00,,,0.00,meteohub,2013-01-01 15:05:00,
2013-01-01 10:10:00,24.6,16.0,29.82,West,264,4.0,12.0,69,0.00,,,0.00,meteohub,2013-01-01 15:10:00,
2013-01-01 10:15:00,24.6,15.6,29.82,NW,312,11.0,12.0,68,0.00,,,0.00,meteohub,2013-01-01 15:15:00,
2013-01-01 10:20:00,24.6,15.6,29.82,NW,316,4.0,12.0,68,0.00,,,0.00,meteohub,2013-01-01 15:20:00,
2013-01-01 10:25:00,24.8,15.8,29.82,NNW,333,8.0,11.0,68,0.00,,,0.00,meteohub,2013-01-01 15:25:00,
2013-01-01 10:30:00,25.0,15.6,29.82,WNW,303,4.0,11.0,67,0.00,,,0.00,meteohub,2013-01-01 15:30:00,
2013-01-01 10:35:00,25.0,16.0,29.82,NW,320,6.0,12.0,68,0.00,,,0.00,meteohub,2013-01-01 15:35:00,
2013-01-01 10:40:00,24.8,15.4,29.82,WNW,286,6.0,13.0,67,0.00,,,0.00,meteohub,2013-01-01 15:40:00,
2013-01-01 10:45:00,24.6,15.6,29.82,WNW,287,2.0,13.0,68,0.00,,,0.00,meteohub,2013-01-01 15:45:00,
2013-01-01 10:50:00,24.4,15.1,29.79,NNW,335,6.0,13.0,67,0.00,,,0.00,meteohub,2013-01-01 15:50:00,
2013-01-01 10:55:00,24.4,15.1,29.79,NNW,327,5.0,11.0,67,0.00,,,0.00,meteohub,2013-01-01 15:55:00,
2013-01-01 11:00:00,24.3,14.9,29.79,NNW,331,6.0,11.0,67,0.00,,,0.00,meteohub,2013-01-01 16:00:00,
2013-01-01 11:05:00,24.4,15.1,29.79,WNW,288,4.0,11.0,67,0.00,,,0.00,meteohub,2013-01-01 16:05:00,
2013-01-01 11:10:00,24.4,15.4,29.79,NW,310,5.0,14.0,68,0.00,,,0.00,meteohub,2013-01-01 16:10:00,
2013-01-01 11:15:00,24.6,15.6,29.79,WNW,297,4.0,14.0,68,0.00,,,0.00,meteohub,2013-01-01 16:15:00,
2013-01-01 11:20:00,24.8,15.4,29.79,NW,310,9.0,14.0,67,0.00,,,0.00,meteohub,2013-01-01 16:20:00,
2013-01-01 11:25:00,25.2,15.8,29.79,NW,305,4.0,11.0,67,0.00,,,0.00,meteohub,2013-01-01 16:25:00,
2013-01-01 11:30:00,25.2,15.8,29.79,NNW,337,6.0,11.0,67,0.00,,,0.00,meteohub,2013-01-01 16:30:00,
2013-01-01 11:35:00,25.0,15.3,29.79,NW,320,13.0,13.0,66,0.00,,,0.00,meteohub,2013-01-01 16:35:00,
2013-01-01 11:40:00,24.8,14.7,29.79,West,265,3.0,13.0,65,0.00,,,0.00,meteohub,2013-01-01 16:40:00,
2013-01-01 11:45:00,24.8,14.7,29.79,West,265,8.0,13.0,65,0.00,,,0.00,meteohub,2013-01-01 16:45:00,
2013-01-01 11:50:00,24.8,14.4,29.79,WNW,299,6.0,13.0,64,0.00,,,0.00,meteohub,2013-01-01 16:50:00,
2013-01-01 11:55:00,24.6,13.8,29.79,NNW,341,3.0,11.0,63,0.00,,,0.00,meteohub,2013-01-01 16:55:00,
2013-01-01 12:00:00,24.6,13.8,29.79,NW,315,6.0,13.0,63,0.00,,,0.00,meteohub,2013-01-01 17:00:00,
2013-01-01 12:05:00,24.4,13.6,29.79,NNW,334,10.0,13.0,63,0.00,,,0.00,meteohub,2013-01-01 17:05:00,
2013-01-01 12:10:00,24.4,13.3,29.79,NW,307,7.0,13.0,62,0.00,,,0.00,meteohub,2013-01-01 17:10:00,
2013-01-01 12:15:00,24.1,12.6,29.79,WNW,282,8.0,18.0,61,0.00,,,0.00,meteohub,2013-01-01 17:15:00,
2013-01-01 12:20:00,24.1,12.2,29.79,NW,308,3.0,18.0,60,0.00,,,0.00,meteohub,2013-01-01 17:20:00,
2013-01-01 12:25:00,24.1,12.2,29.79,West,277,4.0,18.0,60,0.00,,,0.00,meteohub,2013-01-01 17:25:00,
2013-01-01 12:30:00,24.1,12.2,29.79,WNW,288,5.0,18.0,60,0.00,,,0.00,meteohub,2013-01-01 17:30:00,
2013-01-01 12:35:00,24.3,12.4,29.79,NNW,344,3.0,14.0,60,0.00,,,0.00,meteohub,2013-01-01 17:35:00,
2013-01-01 12:40:00,24.3,12.4,29.79,NW,326,6.0,14.0,60,0.00,,,0.00,meteohub,2013-01-01 17:40:00,
2013-01-01 12:45:00,24.3,12.4,29.79,WNW,287,10.0,17.0,60,0.00,,,0.00,meteohub,2013-01-01 17:45:00,
2013-01-01 12:50:00,24.1,11.8,29.76,NNW,344,4.0,17.0,59,0.00,,,0.00,meteohub,2013-01-01 17:50:00,
2013-01-01 12:55:00,24.3,12.4,29.76,NNW,333,11.0,17.0,60,0.00,,,0.00,meteohub,2013-01-01 17:55:00,
2013-01-01 13:00:00,24.3,12.4,29.76,NNW,329,4.0,15.0,60,0.00,,,0.00,meteohub,2013-01-01 18:00:00,
2013-01-01 13:05:00,24.1,11.8,29.76,WNW,303,6.0,15.0,59,0.00,,,0.00,meteohub,2013-01-01 18:05:00,
2013-01-01 13:10:00,24.1,11.8,29.76,WNW,291,5.0,14.0,59,0.00,,,0.00,meteohub,2013-01-01 18:10:00,
2013-01-01 13:15:00,23.9,11.7,29.76,WNW,286,8.0,14.0,59,0.00,,,0.00,meteohub,2013-01-01 18:15:00,
2013-01-01 13:20:00,23.9,11.7,29.76,NW,312,5.0,14.0,59,0.00,,,0.00,meteohub,2013-01-01 18:20:00,
2013-01-01 13:25:00,23.7,11.5,29.76,West,275,8.0,14.0,59,0.00,,,0.00,meteohub,2013-01-01 18:25:00,
2013-01-01 13:31:00,23.7,11.1,29.76,SSW,200,6.0,9.0,58,0.00,,,0.00,meteohub,2013-01-01 18:31:00,
2013-01-01 13:36:00,23.5,10.9,29.76,NW,325,4.0,11.0,58,0.00,,,0.00,meteohub,2013-01-01 18:36:00,
2013-01-01 13:41:00,23.5,10.9,29.76,NW,311,9.0,13.0,58,0.00,,,0.00,meteohub,2013-01-01 18:41:00,
2013-01-01 13:46:00,23.5,10.9,29.76,NNW,329,5.0,13.0,58,0.00,,,0.00,meteohub,2013-01-01 18:46:00,
2013-01-01 13:51:00,23.4,10.8,29.76,NW,308,5.0,13.0,58,0.00,,,0.00,meteohub,2013-01-01 18:51:00,
2013-01-01 13:56:00,23.4,10.4,29.76,WNW,285,6.0,13.0,57,0.00,,,0.00,meteohub,2013-01-01 18:56:00,
2013-01-01 14:01:00,23.4,10.4,29.76,WNW,288,6.0,13.0,57,0.00,,,0.00,meteohub,2013-01-01 19:01:00,
2013-01-01 14:06:00,23.2,10.2,29.76,NW,317,8.0,13.0,57,0.00,,,0.00,meteohub,2013-01-01 19:06:00,
2013-01-01 14:11:00,23.0,10.0,29.76,NNW,330,4.0,12.0,57,0.00,,,0.00,meteohub,2013-01-01 19:11:00,
2013-01-01 14:15:00,23.0,10.0,29.76,NW,309,6.0,12.0,57,0.00,,,0.00,meteohub,2013-01-01 19:15:00,
2013-01-01 14:20:00,22.8,9.9,29.76,WSW,237,8.0,11.0,57,0.00,,,0.00,meteohub,2013-01-01 19:20:00,
2013-01-01 14:26:00,22.8,9.9,29.76,NNW,339,6.0,11.0,57,0.00,,,0.00,meteohub,2013-01-01 19:26:00,
2013-01-01 14:30:00,22.8,9.9,29.76,NNW,327,3.0,8.0,57,0.00,,,0.00,meteohub,2013-01-01 19:30:00,
2013-01-01 14:35:00,22.6,9.7,29.79,NW,308,8.0,12.0,57,0.00,,,0.00,meteohub,2013-01-01 19:35:00,
2013-01-01 14:40:00,22.5,9.1,29.79,WNW,291,3.0,12.0,56,0.00,,,0.00,meteohub,2013-01-01 19:40:00,
2013-01-01 14:45:00,22.3,9.0,29.79,WNW,303,4.0,12.0,56,0.00,,,0.00,meteohub,2013-01-01 19:45:00,
2013-01-01 14:50:00,22.3,9.0,29.76,WNW,292,4.0,11.0,56,0.00,,,0.00,meteohub,2013-01-01 19:50:00,
2013-01-01 14:55:00,22.1,8.8,29.76,WSW,237,0.0,11.0,56,0.00,,,0.00,meteohub,2013-01-01 19:55:00,
2013-01-01 15:00:00,21.9,8.2,29.76,WNW,287,3.0,10.0,55,0.00,,,0.00,meteohub,2013-01-01 20:00:00,
2013-01-01 15:05:00,21.9,8.2,29.79,WNW,297,3.0,9.0,55,0.00,,,0.00,meteohub,2013-01-01 20:05:00,
2013-01-01 15:10:00,21.7,8.1,29.79,WNW,296,4.0,21.0,55,0.00,,,0.00,meteohub,2013-01-01 20:10:00,
2013-01-01 15:15:00,21.6,7.9,29.79,NW,306,6.0,21.0,55,0.00,,,0.00,meteohub,2013-01-01 20:15:00,
2013-01-01 15:20:00,21.4,7.7,29.79,WSW,238,8.0,21.0,55,0.00,,,0.00,meteohub,2013-01-01 20:20:00,
2013-01-01 15:25:00,21.4,7.3,29.79,WNW,283,9.0,21.0,54,0.00,,,0.00,meteohub,2013-01-01 20:25:00,
2013-01-01 15:30:00,21.2,7.5,29.79,West,278,6.0,15.0,55,0.00,,,0.00,meteohub,2013-01-01 20:30:00,
2013-01-01 15:35:00,21.2,7.5,29.79,NW,322,3.0,13.0,55,0.00,,,0.00,meteohub,2013-01-01 20:35:00,
2013-01-01 15:40:00,21.0,7.3,29.79,NW,315,4.0,13.0,55,0.00,,,0.00,meteohub,2013-01-01 20:40:00,
2013-01-01 15:46:00,21.0,7.3,29.79,WNW,289,4.0,9.0,55,0.00,,,0.00,meteohub,2013-01-01 20:46:00,
2013-01-01 15:51:00,20.8,7.2,29.79,NW,305,8.0,9.0,55,0.00,,,0.00,meteohub,2013-01-01 20:51:00,
2013-01-01 15:56:00,20.8,7.2,29.79,WNW,296,6.0,10.0,55,0.00,,,0.00,meteohub,2013-01-01 20:56:00,
2013-01-01 16:01:00,20.7,7.0,29.79,NW,306,4.0,11.0,55,0.00,,,0.00,meteohub,2013-01-01 21:01:00,
2013-01-01 16:06:00,20.5,6.8,29.79,NNW,334,6.0,11.0,55,0.00,,,0.00,meteohub,2013-01-01 21:06:00,
2013-01-01 16:11:00,20.5,6.8,29.79,West,270,3.0,11.0,55,0.00,,,0.00,meteohub,2013-01-01 21:11:00,
2013-01-01 16:16:00,20.3,6.8,29.79,WNW,289,3.0,11.0,55,0.00,,,0.00,meteohub,2013-01-01 21:16:00,
2013-01-01 16:21:00,20.3,6.8,29.79,NW,307,4.0,11.0,55,0.00,,,0.00,meteohub,2013-01-01 21:21:00,
2013-01-01 16:26:00,20.1,6.6,29.79,WNW,300,3.0,13.0,55,0.00,,,0.00,meteohub,2013-01-01 21:26:00,
2013-01-01 16:31:00,19.9,6.4,29.79,WNW,293,5.0,13.0,55,0.00,,,0.00,meteohub,2013-01-01 21:31:00,
2013-01-01 16:36:00,19.8,6.3,29.79,WNW,300,4.0,13.0,55,0.00,,,0.00,meteohub,2013-01-01 21:36:00,
2013-01-01 16:41:00,19.8,6.3,29.79,West,279,6.0,11.0,55,0.00,,,0.00,meteohub,2013-01-01 21:41:00,
2013-01-01 16:46:00,19.6,6.1,29.79,West,281,8.0,9.0,55,0.00,,,0.00,meteohub,2013-01-01 21:46:00,
2013-01-01 16:51:00,19.4,6.3,29.79,WNW,299,0.0,8.0,56,0.00,,,0.00,meteohub,2013-01-01 21:51:00,
2013-01-01 16:56:00,19.4,6.3,29.79,West,276,3.0,8.0,56,0.00,,,0.00,meteohub,2013-01-01 21:56:00,
2013-01-01 17:01:00,19.2,6.1,29.79,NW,321,4.0,11.0,56,0.00,,,0.00,meteohub,2013-01-01 22:01:00,
2013-01-01 17:06:00,19.2,6.1,29.82,West,270,7.0,11.0,56,0.00,,,0.00,meteohub,2013-01-01 22:06:00,
2013-01-01 17:11:00,19.0,5.9,29.82,WNW,293,6.0,11.0,56,0.00,,,0.00,meteohub,2013-01-01 22:11:00,
2013-01-01 17:16:00,18.9,5.7,29.82,NW,318,8.0,10.0,56,0.00,,,0.00,meteohub,2013-01-01 22:16:00,
2013-01-01 17:21:00,18.7,5.5,29.82,West,273,3.0,10.0,56,0.00,,,0.00,meteohub,2013-01-01 22:21:00,
2013-01-01 17:26:00,18.7,5.5,29.82,West,280,4.0,8.0,56,0.00,,,0.00,meteohub,2013-01-01 22:26:00,
2013-01-01 17:31:00,18.5,5.4,29.82,West,279,3.0,8.0,56,0.00,,,0.00,meteohub,2013-01-01 22:31:00,
2013-01-01 17:36:00,18.5,5.4,29.82,WNW,293,3.0,6.0,56,0.00,,,0.00,meteohub,2013-01-01 22:36:00,
2013-01-01 17:41:00,18.5,5.7,29.82,West,264,5.0,6.0,57,0.00,,,0.00,meteohub,2013-01-01 22:41:00,
2013-01-01 17:46:00,18.3,5.7,29.82,NW,305,6.0,8.0,57,0.00,,,0.00,meteohub,2013-01-01 22:46:00,
2013-01-01 17:51:00,18.3,5.7,29.82,WNW,289,6.0,10.0,57,0.00,,,0.00,meteohub,2013-01-01 22:51:00,
2013-01-01 17:56:00,18.1,5.5,29.82,NW,320,5.0,10.0,57,0.00,,,0.00,meteohub,2013-01-01 22:56:00,
2013-01-01 18:01:00,18.1,5.5,29.82,WNW,284,3.0,10.0,57,0.00,,,0.00,meteohub,2013-01-01 23:01:00,
2013-01-01 18:06:00,18.0,5.4,29.82,WNW,282,5.0,8.0,57,0.00,,,0.00,meteohub,2013-01-01 23:06:00,
2013-01-01 18:11:00,18.0,5.4,29.82,West,262,5.0,8.0,57,0.00,,,0.00,meteohub,2013-01-01 23:11:00,
2013-01-01 18:16:00,17.8,5.2,29.82,WNW,302,4.0,8.0,57,0.00,,,0.00,meteohub,2013-01-01 23:16:00,
2013-01-01 18:21:00,17.8,5.2,29.85,NNW,328,5.0,6.0,57,0.00,,,0.00,meteohub,2013-01-01 23:21:00,
2013-01-01 18:26:00,17.8,5.5,29.85,WNW,284,4.0,8.0,58,0.00,,,0.00,meteohub,2013-01-01 23:26:00,
2013-01-01 18:31:00,17.8,5.5,29.85,West,274,5.0,8.0,58,0.00,,,0.00,meteohub,2013-01-01 23:31:00,
2013-01-01 18:36:00,17.8,5.5,29.85,West,280,2.0,6.0,58,0.00,,,0.00,meteohub,2013-01-01 23:36:00,
2013-01-01 18:41:00,17.8,5.5,29.85,WNW,298,0.0,6.0,58,0.00,,,0.00,meteohub,2013-01-01 23:41:00,
2013-01-01 18:46:00,17.8,5.5,29.85,WNW,290,0.0,5.0,58,0.00,,,0.00,meteohub,2013-01-01 23:46:00,
2013-01-01 18:51:00,17.8,5.9,29.85,West,276,3.0,8.0,59,0.00,,,0.00,meteohub,2013-01-01 23:51:00,
2013-01-01 18:56:00,17.8,5.9,29.85,WNW,287,4.0,8.0,59,0.00,,,0.00,meteohub,2013-01-01 23:56:00,
2013-01-01 19:01:00,17.6,5.7,29.85,WNW,303,0.0,8.0,59,0.00,,,0.00,meteohub,2013-01-02 00:01:00,
2013-01-01 19:06:00,17.6,5.7,29.85,WNW,299,5.0,6.0,59,0.00,,,0.00,meteohub,2013-01-02 00:06:00,
2013-01-01 19:11:00,17.6,5.7,29.85,NW,317,4.0,5.0,59,0.00,,,0.00,meteohub,2013-01-02 00:11:00,
2013-01-01 19:16:00,17.4,5.5,29.85,NNW,334,4.0,5.0,59,0.00,,,0.00,meteohub,2013-01-02 00:16:00,
2013-01-01 19:21:00,17.4,5.5,29.88,WNW,294,0.0,5.0,59,0.00,,,0.00,meteohub,2013-01-02 00:21:00,
2013-01-01 19:26:00,17.2,5.4,29.88,NW,312,4.0,10.0,59,0.00,,,0.00,meteohub,2013-01-02 00:26:00,
2013-01-01 19:31:00,17.1,5.2,29.88,NW,307,3.0,10.0,59,0.00,,,0.00,meteohub,2013-01-02 00:31:00,
2013-01-01 19:36:00,17.1,4.8,29.88,WNW,286,8.0,10.0,58,0.00,,,0.00,meteohub,2013-01-02 00:36:00,
2013-01-01 19:41:00,16.9,4.6,29.88,WNW,299,3.0,9.0,58,0.00,,,0.00,meteohub,2013-01-02 00:41:00,
2013-01-01 19:46:00,16.7,4.5,29.88,NW,310,4.0,9.0,58,0.00,,,0.00,meteohub,2013-01-02 00:46:00,
2013-01-01 19:51:00,16.7,4.5,29.88,WNW,300,3.0,8.0,58,0.00,,,0.00,meteohub,2013-01-02 00:51:00,
2013-01-01 19:56:00,16.7,4.5,29.88,WNW,301,3.0,6.0,58,0.00,,,0.00,meteohub,2013-01-02 00:56:00,
2013-01-01 20:01:00,16.7,4.5,29.88,West,277,2.0,6.0,58,0.00,,,0.00,meteohub,2013-01-02 01:01:00,
2013-01-01 20:06:00,16.5,3.9,29.88,WNW,284,3.0,14.0,57,0.00,,,0.00,meteohub,2013-01-02 01:06:00,
2013-01-01 20:11:00,16.2,3.6,29.88,WNW,297,3.0,14.0,57,0.00,,,0.00,meteohub,2013-01-02 01:11:00,
2013-01-01 20:16:00,16.2,3.6,29.88,WNW,292,9.0,14.0,57,0.00,,,0.00,meteohub,2013-01-02 01:16:00,
2013-01-01 20:21:00,16.0,3.4,29.85,WNW,289,0.0,9.0,57,0.00,,,0.00,meteohub,2013-01-02 01:21:00,
2013-01-01 20:26:00,16.0,3.4,29.85,NW,320,6.0,9.0,57,0.00,,,0.00,meteohub,2013-01-02 01:26:00,
2013-01-01 20:31:00,16.2,3.9,29.85,West,273,3.0,11.0,58,0.00,,,0.00,meteohub,2013-01-02 01:31:00,
2013-01-01 20:36:00,16.0,3.7,29.88,West,269,3.0,11.0,58,0.00,,,0.00,meteohub,2013-01-02 01:36:00,
2013-01-01 20:41:00,16.0,3.7,29.88,WNW,299,4.0,11.0,58,0.00,,,0.00,meteohub,2013-01-02 01:41:00,
2013-01-01 20:46:00,16.0,3.7,29.88,NW,312,0.0,8.0,58,0.00,,,0.00,meteohub,2013-01-02 01:46:00,
2013-01-01 20:51:00,16.0,4.1,29.88,NW,310,3.0,8.0,59,0.00,,,0.00,meteohub,2013-01-02 01:51:00,
2013-01-01 20:56:00,16.2,4.3,29.88,WNW,302,0.0,8.0,59,0.00,,,0.00,meteohub,2013-01-02 01:56:00,
2013-01-01 21:01:00,16.0,4.1,29.88,NW,307,0.0,8.0,59,0.00,,,0.00,meteohub,2013-01-02 02:01:00,
2013-01-01 21:06:00,15.6,3.9,29.88,WNW,299,0.0,5.0,59,0.00,,,0.00,meteohub,2013-01-02 02:06:00,
2013-01-01 21:11:00,16.0,4.1,29.88,WSW,244,2.0,8.0,59,0.00,,,0.00,meteohub,2013-01-02 02:11:00,
2013-01-01 21:16:00,15.4,3.7,29.88,WNW,296,0.0,8.0,59,0.00,,,0.00,meteohub,2013-01-02 02:16:00,
2013-01-01 21:21:00,15.8,4.5,29.88,WNW,291,0.0,8.0,60,0.00,,,0.00,meteohub,2013-01-02 02:21:00,
2013-01-01 21:26:00,15.6,4.3,29.88,WNW,292,0.0,6.0,60,0.00,,,0.00,meteohub,2013-01-02 02:26:00,
2013-01-01 21:31:00,15.4,4.1,29.88,WNW,297,3.0,6.0,60,0.00,,,0.00,meteohub,2013-01-02 02:31:00,
2013-01-01 21:36:00,15.1,3.4,29.88,WNW,299,0.0,4.0,59,0.00,,,0.00,meteohub,2013-01-02 02:36:00,
2013-01-01 21:41:00,14.9,3.2,29.88,WNW,299,0.0,4.0,59,0.00,,,0.00,meteohub,2013-01-02 02:41:00,
2013-01-01 21:46:00,15.1,3.4,29.88,West,274,3.0,3.0,59,0.00,,,0.00,meteohub,2013-01-02 02:46:00,
2013-01-01 21:51:00,15.1,3.7,29.88,West,274,0.0,7.0,60,0.00,,,0.00,meteohub,2013-01-02 02:51:00,
2013-01-01 21:56:00,15.3,3.9,29.88,WSW,251,0.0,7.0,60,0.00,,,0.00,meteohub,2013-01-02 02:56:00,
2013-01-01 22:01:00,15.1,3.7,29.88,West,261,0.0,7.0,60,0.00,,,0.00,meteohub,2013-01-02 03:01:00,
2013-01-01 22:06:00,15.1,3.7,29.88,WNW,296,2.0,11.0,60,0.00,,,0.00,meteohub,2013-01-02 03:06:00,
2013-01-01 22:11:00,15.1,3.7,29.88,NW,309,4.0,11.0,60,0.00,,,0.00,meteohub,2013-01-02 03:11:00,
2013-01-01 22:16:00,15.1,3.7,29.88,NW,304,0.0,11.0,60,0.00,,,0.00,meteohub,2013-01-02 03:16:00,
2013-01-01 22:21:00,14.9,3.6,29.88,NNW,340,3.0,6.0,60,0.00,,,0.00,meteohub,2013-01-02 03:21:00,
2013-01-01 22:26:00,14.9,3.2,29.88,NW,311,0.0,8.0,59,0.00,,,0.00,meteohub,2013-01-02 03:26:00,
2013-01-01 22:31:00,14.9,3.6,29.88,West,272,3.0,8.0,60,0.00,,,0.00,meteohub,2013-01-02 03:31:00,
2013-01-01 22:36:00,14.9,3.6,29.88,WNW,289,4.0,8.0,60,0.00,,,0.00,meteohub,2013-01-02 03:36:00,
2013-01-01 22:41:00,14.9,3.6,29.88,WSW,244,0.0,8.0,60,0.00,,,0.00,meteohub,2013-01-02 03:41:00,
2013-01-01 22:46:00,14.7,3.4,29.88,WNW,290,6.0,8.0,60,0.00,,,0.00,meteohub,2013-01-02 03:46:00,
2013-01-01 22:51:00,14.7,3.4,29.91,WNW,291,3.0,9.0,60,0.00,,,0.00,meteohub,2013-01-02 03:51:00,
2013-01-01 22:56:00,14.7,3.4,29.91,WNW,294,0.0,9.0,60,0.00,,,0.00,meteohub,2013-01-02 03:56:00,
2013-01-01 23:01:00,14.5,3.2,29.91,WNW,286,0.0,9.0,60,0.00,,,0.00,meteohub,2013-01-02 04:01:00,
2013-01-01 23:06:00,14.5,3.2,29.91,WNW,303,5.0,6.0,60,0.00,,,0.00,meteohub,2013-01-02 04:06:00,
2013-01-01 23:11:00,14.5,3.2,29.91,NW,310,3.0,9.0,60,0.00,,,0.00,meteohub,2013-01-02 04:11:00,
2013-01-01 23:16:00,14.5,3.2,29.91,West,272,0.0,9.0,60,0.00,,,0.00,meteohub,2013-01-02 04:16:00,
2013-01-01 23:21:00,14.5,3.2,29.88,NW,307,0.0,9.0,60,0.00,,,0.00,meteohub,2013-01-02 04:21:00,
2013-01-01 23:26:00,14.5,3.2,29.88,WNW,301,4.0,5.0,60,0.00,,,0.00,meteohub,2013-01-02 04:26:00,
2013-01-01 23:31:00,14.4,3.0,29.88,West,276,0.0,8.0,60,0.00,,,0.00,meteohub,2013-01-02 04:31:00,
2013-01-01 23:36:00,14.4,3.0,29.88,WSW,250,0.0,8.0,60,0.00,,,0.00,meteohub,2013-01-02 04:36:00,
2013-01-01 23:41:00,14.4,3.0,29.88,WNW,286,0.0,8.0,60,0.00,,,0.00,meteohub,2013-01-02 04:41:00,
2013-01-01 23:46:00,14.4,3.0,29.88,WNW,294,0.0,4.0,60,0.00,,,0.00,meteohub,2013-01-02 04:46:00,
2013-01-01 23:51:00,14.4,3.0,29.88,WSW,241,0.0,4.0,60,0.00,,,0.00,meteohub,2013-01-02 04:51:00,
2013-01-01 23:56:00,14.2,2.8,29.88,WNW,286,0.0,4.0,60,0.00,,,0.00,meteohub,2013-01-02 04:56:00,